sensor_id;sensor_type;location;lat;lon;timestamp;temperature;humidity
68248;SHT30;55064;49.636;12.164;2023-05-10T00:01:36;12.46;66.34
68248;SHT30;55064;49.636;12.164;2023-05-10T00:07:48;12.51;66.23
68248;SHT30;55064;49.636;12.164;2023-05-10T00:17:20;12.33;66.71
68248;SHT30;55064;49.636;12.164;2023-05-10T00:20:17;12.33;66.64
68248;SHT30;55064;49.636;12.164;2023-05-10T00:26:02;12.30;66.85
68248;SHT30;55064;49.636;12.164;2023-05-10T00:28:57;12.28;67.06
68248;SHT30;55064;49.636;12.164;2023-05-10T00:31:29;12.28;66.91
68248;SHT30;55064;49.636;12.164;2023-05-10T00:34:14;12.13;67.24
68248;SHT30;55064;49.636;12.164;2023-05-10T00:36:40;12.16;67.33
68248;SHT30;55064;49.636;12.164;2023-05-10T00:39:23;12.03;67.78
68248;SHT30;55064;49.636;12.164;2023-05-10T00:45:43;12.18;67.36
68248;SHT30;55064;49.636;12.164;2023-05-10T00:58:13;12.14;67.68
68248;SHT30;55064;49.636;12.164;2023-05-10T01:07:04;12.06;67.89
68248;SHT30;55064;49.636;12.164;2023-05-10T01:09:32;12.03;68.18
68248;SHT30;55064;49.636;12.164;2023-05-10T01:12:16;12.07;67.96
68248;SHT30;55064;49.636;12.164;2023-05-10T01:17:56;12.01;68.41
68248;SHT30;55064;49.636;12.164;2023-05-10T01:20:39;11.93;68.67
68248;SHT30;55064;49.636;12.164;2023-05-10T01:33:19;11.78;69.16
68248;SHT30;55064;49.636;12.164;2023-05-10T01:39:17;11.72;69.50
68248;SHT30;55064;49.636;12.164;2023-05-10T01:42:08;11.68;69.72
68248;SHT30;55064;49.636;12.164;2023-05-10T01:51:27;11.63;70.10
68248;SHT30;55064;49.636;12.164;2023-05-10T01:57:16;11.61;70.15
68248;SHT30;55064;49.636;12.164;2023-05-10T02:02:50;11.59;70.51
68248;SHT30;55064;49.636;12.164;2023-05-10T02:05:38;11.65;70.12
68248;SHT30;55064;49.636;12.164;2023-05-10T02:11:27;11.58;70.57
68248;SHT30;55064;49.636;12.164;2023-05-10T02:13:57;11.55;70.72
68248;SHT30;55064;49.636;12.164;2023-05-10T02:26:55;11.61;70.82
68248;SHT30;55064;49.636;12.164;2023-05-10T02:29:30;11.61;70.73
68248;SHT30;55064;49.636;12.164;2023-05-10T02:38:42;11.65;70.69
68248;SHT30;55064;49.636;12.164;2023-05-10T02:44:35;11.58;71.45
68248;SHT30;55064;49.636;12.164;2023-05-10T02:50:28;11.55;71.48
68248;SHT30;55064;49.636;12.164;2023-05-10T02:53:22;11.51;71.90
68248;SHT30;55064;49.636;12.164;2023-05-10T02:59:23;11.52;71.83
68248;SHT30;55064;49.636;12.164;2023-05-10T03:05:11;11.52;72.36
68248;SHT30;55064;49.636;12.164;2023-05-10T03:07:40;11.58;71.73
68248;SHT30;55064;49.636;12.164;2023-05-10T03:10:17;11.51;72.32
68248;SHT30;55064;49.636;12.164;2023-05-10T03:36:01;11.59;72.46
68248;SHT30;55064;49.636;12.164;2023-05-10T03:39:02;11.52;73.08
68248;SHT30;55064;49.636;12.164;2023-05-10T04:01:34;11.32;73.86
68248;SHT30;55064;49.636;12.164;2023-05-10T04:11:15;11.31;74.74
68248;SHT30;55064;49.636;12.164;2023-05-10T04:24:11;11.06;78.39
68248;SHT30;55064;49.636;12.164;2023-05-10T04:26:38;11.01;78.59
68248;SHT30;55064;49.636;12.164;2023-05-10T04:35:55;10.75;80.95
68248;SHT30;55064;49.636;12.164;2023-05-10T04:45:12;10.70;82.29
68248;SHT30;55064;49.636;12.164;2023-05-10T04:48:00;10.70;82.25
68248;SHT30;55064;49.636;12.164;2023-05-10T04:50:27;10.75;81.57
68248;SHT30;55064;49.636;12.164;2023-05-10T04:53:05;10.79;82.62
68248;SHT30;55064;49.636;12.164;2023-05-10T05:02:08;11.01;84.07
68248;SHT30;55064;49.636;12.164;2023-05-10T05:04:42;10.92;83.70
68248;SHT30;55064;49.636;12.164;2023-05-10T05:07:36;10.95;83.99
68248;SHT30;55064;49.636;12.164;2023-05-10T05:10:19;10.90;84.52
68248;SHT30;55064;49.636;12.164;2023-05-10T05:12:57;10.90;85.46
68248;SHT30;55064;49.636;12.164;2023-05-10T05:18:44;10.73;86.18
68248;SHT30;55064;49.636;12.164;2023-05-10T05:21:29;10.63;87.62
68248;SHT30;55064;49.636;12.164;2023-05-10T05:27:16;10.42;89.86
68248;SHT30;55064;49.636;12.164;2023-05-10T05:29:47;10.27;90.34
68248;SHT30;55064;49.636;12.164;2023-05-10T05:32:12;10.24;91.34
68248;SHT30;55064;49.636;12.164;2023-05-10T05:37:52;10.27;91.14
68248;SHT30;55064;49.636;12.164;2023-05-10T05:40:17;10.41;91.58
68248;SHT30;55064;49.636;12.164;2023-05-10T05:42:42;10.34;91.92
68248;SHT30;55064;49.636;12.164;2023-05-10T05:45:10;10.41;91.28
68248;SHT30;55064;49.636;12.164;2023-05-10T05:47:38;10.28;91.06
68248;SHT30;55064;49.636;12.164;2023-05-10T05:50:06;10.32;91.18
68248;SHT30;55064;49.636;12.164;2023-05-10T05:52:32;10.45;90.62
68248;SHT30;55064;49.636;12.164;2023-05-10T05:54:57;10.49;91.04
68248;SHT30;55064;49.636;12.164;2023-05-10T05:57:23;10.51;91.33
68248;SHT30;55064;49.636;12.164;2023-05-10T05:59:49;10.51;91.77
68248;SHT30;55064;49.636;12.164;2023-05-10T06:02:14;10.52;90.44
68248;SHT30;55064;49.636;12.164;2023-05-10T06:04:39;10.55;91.91
68248;SHT30;55064;49.636;12.164;2023-05-10T06:07:05;10.55;90.83
68248;SHT30;55064;49.636;12.164;2023-05-10T06:09:30;10.46;93.29
68248;SHT30;55064;49.636;12.164;2023-05-10T06:11:58;10.41;92.64
68248;SHT30;55064;49.636;12.164;2023-05-10T06:14:23;10.41;92.59
68248;SHT30;55064;49.636;12.164;2023-05-10T06:16:51;10.41;93.02
68248;SHT30;55064;49.636;12.164;2023-05-10T06:19:16;10.31;92.75
68248;SHT30;55064;49.636;12.164;2023-05-10T06:21:42;10.40;92.70
68248;SHT30;55064;49.636;12.164;2023-05-10T06:24:08;10.42;91.74
68248;SHT30;55064;49.636;12.164;2023-05-10T06:26:34;10.44;92.65
68248;SHT30;55064;49.636;12.164;2023-05-10T06:28:59;10.46;93.24
68248;SHT30;55064;49.636;12.164;2023-05-10T06:31:27;10.46;92.61
68248;SHT30;55064;49.636;12.164;2023-05-10T06:33:52;10.37;93.30
68248;SHT30;55064;49.636;12.164;2023-05-10T06:36:18;10.31;93.90
68248;SHT30;55064;49.636;12.164;2023-05-10T06:38:46;10.32;94.15
68248;SHT30;55064;49.636;12.164;2023-05-10T06:41:11;10.41;92.94
68248;SHT30;55064;49.636;12.164;2023-05-10T06:43:36;10.48;93.91
68248;SHT30;55064;49.636;12.164;2023-05-10T06:46:05;10.45;94.16
68248;SHT30;55064;49.636;12.164;2023-05-10T06:48:30;10.44;93.56
68248;SHT30;55064;49.636;12.164;2023-05-10T06:50:58;10.46;94.99
68248;SHT30;55064;49.636;12.164;2023-05-10T06:53:27;10.51;95.61
68248;SHT30;55064;49.636;12.164;2023-05-10T06:55:52;10.51;95.06
68248;SHT30;55064;49.636;12.164;2023-05-10T06:58:25;10.46;94.11
68248;SHT30;55064;49.636;12.164;2023-05-10T07:00:53;10.48;94.16
68248;SHT30;55064;49.636;12.164;2023-05-10T07:03:18;10.40;95.70
68248;SHT30;55064;49.636;12.164;2023-05-10T07:05:44;10.46;94.88
68248;SHT30;55064;49.636;12.164;2023-05-10T07:08:09;10.46;94.63
68248;SHT30;55064;49.636;12.164;2023-05-10T07:10:34;10.40;95.98
68248;SHT30;55064;49.636;12.164;2023-05-10T07:13:03;10.45;95.82
68248;SHT30;55064;49.636;12.164;2023-05-10T07:15:28;10.37;95.81
68248;SHT30;55064;49.636;12.164;2023-05-10T07:17:53;10.53;95.76
68248;SHT30;55064;49.636;12.164;2023-05-10T07:20:21;10.56;95.90
68248;SHT30;55064;49.636;12.164;2023-05-10T07:22:46;10.58;96.02
68248;SHT30;55064;49.636;12.164;2023-05-10T07:25:14;10.72;96.65
68248;SHT30;55064;49.636;12.164;2023-05-10T07:27:42;10.83;96.77
68248;SHT30;55064;49.636;12.164;2023-05-10T07:30:08;10.86;96.10
68248;SHT30;55064;49.636;12.164;2023-05-10T07:32:33;10.84;95.98
68248;SHT30;55064;49.636;12.164;2023-05-10T07:34:59;10.86;95.25
68248;SHT30;55064;49.636;12.164;2023-05-10T07:37:24;10.95;95.06
68248;SHT30;55064;49.636;12.164;2023-05-10T07:39:49;10.92;95.01
68248;SHT30;55064;49.636;12.164;2023-05-10T07:42:15;11.01;96.33
68248;SHT30;55064;49.636;12.164;2023-05-10T07:44:40;11.06;95.63
68248;SHT30;55064;49.636;12.164;2023-05-10T07:47:05;11.14;97.59
68248;SHT30;55064;49.636;12.164;2023-05-10T07:49:31;11.27;96.76
68248;SHT30;55064;49.636;12.164;2023-05-10T07:51:56;11.42;94.77
68248;SHT30;55064;49.636;12.164;2023-05-10T07:54:21;11.57;94.73
68248;SHT30;55064;49.636;12.164;2023-05-10T07:56:50;11.72;95.28
68248;SHT30;55064;49.636;12.164;2023-05-10T07:59:19;11.78;95.15
68248;SHT30;55064;49.636;12.164;2023-05-10T08:01:47;11.80;94.48
68248;SHT30;55064;49.636;12.164;2023-05-10T08:04:12;11.87;94.63
68248;SHT30;55064;49.636;12.164;2023-05-10T08:06:41;11.85;95.62
68248;SHT30;55064;49.636;12.164;2023-05-10T08:09:07;11.86;95.05
68248;SHT30;55064;49.636;12.164;2023-05-10T08:11:34;11.72;94.81
68248;SHT30;55064;49.636;12.164;2023-05-10T08:14:00;11.87;94.76
68248;SHT30;55064;49.636;12.164;2023-05-10T08:16:25;11.97;95.39
68248;SHT30;55064;49.636;12.164;2023-05-10T08:18:51;11.90;95.37
68248;SHT30;55064;49.636;12.164;2023-05-10T08:21:17;11.86;93.76
68248;SHT30;55064;49.636;12.164;2023-05-10T08:23:45;11.94;93.71
68248;SHT30;55064;49.636;12.164;2023-05-10T08:26:11;12.16;92.94
68248;SHT30;55064;49.636;12.164;2023-05-10T08:28:36;12.34;93.60
68248;SHT30;55064;49.636;12.164;2023-05-10T08:31:01;12.41;92.98
68248;SHT30;55064;49.636;12.164;2023-05-10T08:33:27;12.28;94.70
68248;SHT30;55064;49.636;12.164;2023-05-10T08:35:52;12.24;95.01
68248;SHT30;55064;49.636;12.164;2023-05-10T08:38:18;12.23;94.37
68248;SHT30;55064;49.636;12.164;2023-05-10T08:40:44;12.27;93.33
68248;SHT30;55064;49.636;12.164;2023-05-10T08:43:11;12.40;93.02
68248;SHT30;55064;49.636;12.164;2023-05-10T08:45:39;12.52;93.62
68248;SHT30;55064;49.636;12.164;2023-05-10T08:48:07;12.65;94.77
68248;SHT30;55064;49.636;12.164;2023-05-10T08:50:37;12.55;93.55
68248;SHT30;55064;49.636;12.164;2023-05-10T08:53:06;12.69;92.92
68248;SHT30;55064;49.636;12.164;2023-05-10T08:55:34;12.82;93.00
68248;SHT30;55064;49.636;12.164;2023-05-10T08:58:02;12.88;93.00
68248;SHT30;55064;49.636;12.164;2023-05-10T09:00:28;13.19;92.26
68248;SHT30;55064;49.636;12.164;2023-05-10T09:02:54;13.40;89.66
68248;SHT30;55064;49.636;12.164;2023-05-10T09:05:19;13.55;90.73
68248;SHT30;55064;49.636;12.164;2023-05-10T09:07:44;13.59;90.24
68248;SHT30;55064;49.636;12.164;2023-05-10T09:10:10;13.85;88.12
68248;SHT30;55064;49.636;12.164;2023-05-10T09:12:37;13.87;90.14
68248;SHT30;55064;49.636;12.164;2023-05-10T09:15:03;13.95;89.43
68248;SHT30;55064;49.636;12.164;2023-05-10T09:17:30;14.02;89.18
68248;SHT30;55064;49.636;12.164;2023-05-10T09:20:02;13.98;89.63
68248;SHT30;55064;49.636;12.164;2023-05-10T09:22:30;14.08;89.27
68248;SHT30;55064;49.636;12.164;2023-05-10T09:25:09;13.82;88.17
68248;SHT30;55064;49.636;12.164;2023-05-10T09:27:36;13.68;88.55
68248;SHT30;55064;49.636;12.164;2023-05-10T09:30:03;13.54;90.40
68248;SHT30;55064;49.636;12.164;2023-05-10T09:32:40;13.44;90.37
68248;SHT30;55064;49.636;12.164;2023-05-10T09:35:06;13.45;89.21
68248;SHT30;55064;49.636;12.164;2023-05-10T09:37:32;13.48;90.92
68248;SHT30;55064;49.636;12.164;2023-05-10T09:39:57;13.38;90.74
68248;SHT30;55064;49.636;12.164;2023-05-10T09:42:25;13.45;91.53
68248;SHT30;55064;49.636;12.164;2023-05-10T09:44:51;13.31;90.93
68248;SHT30;55064;49.636;12.164;2023-05-10T09:47:19;13.27;92.01
68248;SHT30;55064;49.636;12.164;2023-05-10T09:49:49;13.30;93.12
68248;SHT30;55064;49.636;12.164;2023-05-10T09:52:16;13.37;92.82
68248;SHT30;55064;49.636;12.164;2023-05-10T09:54:52;13.33;94.79
68248;SHT30;55064;49.636;12.164;2023-05-10T09:57:21;13.33;93.43
68248;SHT30;55064;49.636;12.164;2023-05-10T09:59:47;13.24;93.37
68248;SHT30;55064;49.636;12.164;2023-05-10T10:02:13;13.28;93.86
68248;SHT30;55064;49.636;12.164;2023-05-10T10:04:41;13.31;95.20
68248;SHT30;55064;49.636;12.164;2023-05-10T10:07:09;13.27;94.34
68248;SHT30;55064;49.636;12.164;2023-05-10T10:09:35;13.36;94.14
68248;SHT30;55064;49.636;12.164;2023-05-10T10:12:01;13.40;93.13
68248;SHT30;55064;49.636;12.164;2023-05-10T10:14:28;13.43;93.99
68248;SHT30;55064;49.636;12.164;2023-05-10T10:16:54;13.54;93.82
68248;SHT30;55064;49.636;12.164;2023-05-10T10:19:22;13.64;93.67
68248;SHT30;55064;49.636;12.164;2023-05-10T10:21:50;13.61;93.56
68248;SHT30;55064;49.636;12.164;2023-05-10T10:24:16;13.64;92.58
68248;SHT30;55064;49.636;12.164;2023-05-10T10:26:42;13.78;93.42
68248;SHT30;55064;49.636;12.164;2023-05-10T10:34:28;14.00;91.92
68248;SHT30;55064;49.636;12.164;2023-05-10T10:36:55;14.05;89.80
68248;SHT30;55064;49.636;12.164;2023-05-10T10:39:24;14.08;88.54
68248;SHT30;55064;49.636;12.164;2023-05-10T10:41:56;14.13;88.97
68248;SHT30;55064;49.636;12.164;2023-05-10T10:50:02;14.68;89.30
68248;SHT30;55064;49.636;12.164;2023-05-10T10:52:42;14.81;89.18
68248;SHT30;55064;49.636;12.164;2023-05-10T10:55:11;14.84;86.89
68248;SHT30;55064;49.636;12.164;2023-05-10T11:03:05;14.68;87.18
68248;SHT30;55064;49.636;12.164;2023-05-10T11:05:35;14.61;86.91
68248;SHT30;55064;49.636;12.164;2023-05-10T11:10:38;14.45;85.95
68248;SHT30;55064;49.636;12.164;2023-05-10T11:13:08;14.51;86.99
68248;SHT30;55064;49.636;12.164;2023-05-10T11:15:47;14.48;86.93
68248;SHT30;55064;49.636;12.164;2023-05-10T11:18:21;14.61;88.97
68248;SHT30;55064;49.636;12.164;2023-05-10T11:20:52;14.67;86.21
68248;SHT30;55064;49.636;12.164;2023-05-10T11:23:18;14.79;87.18
68248;SHT30;55064;49.636;12.164;2023-05-10T11:25:45;14.75;85.12
68248;SHT30;55064;49.636;12.164;2023-05-10T11:28:12;14.74;84.70
68248;SHT30;55064;49.636;12.164;2023-05-10T11:30:39;14.85;86.66
68248;SHT30;55064;49.636;12.164;2023-05-10T11:33:06;15.00;87.22
68248;SHT30;55064;49.636;12.164;2023-05-10T11:35:39;14.84;85.92
68248;SHT30;55064;49.636;12.164;2023-05-10T11:38:07;15.09;86.69
68248;SHT30;55064;49.636;12.164;2023-05-10T11:40:33;15.07;85.26
68248;SHT30;55064;49.636;12.164;2023-05-10T11:43:01;14.81;85.17
68248;SHT30;55064;49.636;12.164;2023-05-10T11:45:27;14.84;86.20
68248;SHT30;55064;49.636;12.164;2023-05-10T11:47:54;14.81;86.16
68248;SHT30;55064;49.636;12.164;2023-05-10T11:50:20;14.93;85.80
68248;SHT30;55064;49.636;12.164;2023-05-10T11:52:51;15.07;85.95
68248;SHT30;55064;49.636;12.164;2023-05-10T11:55:21;15.12;85.82
68248;SHT30;55064;49.636;12.164;2023-05-10T11:57:46;15.33;85.94
68248;SHT30;55064;49.636;12.164;2023-05-10T12:00:12;15.54;84.79
68248;SHT30;55064;49.636;12.164;2023-05-10T12:02:38;15.77;83.15
68248;SHT30;55064;49.636;12.164;2023-05-10T12:05:08;15.72;81.76
68248;SHT30;55064;49.636;12.164;2023-05-10T12:10:34;15.62;83.76
68248;SHT30;55064;49.636;12.164;2023-05-10T12:13:02;15.79;82.40
68248;SHT30;55064;49.636;12.164;2023-05-10T12:15:29;15.79;80.28
68248;SHT30;55064;49.636;12.164;2023-05-10T12:17:56;15.34;81.38
68248;SHT30;55064;49.636;12.164;2023-05-10T12:20:24;15.46;81.93
68248;SHT30;55064;49.636;12.164;2023-05-10T12:22:55;15.54;83.02
68248;SHT30;55064;49.636;12.164;2023-05-10T12:25:30;15.54;83.42
68248;SHT30;55064;49.636;12.164;2023-05-10T12:28:00;15.57;83.36
68248;SHT30;55064;49.636;12.164;2023-05-10T12:30:37;15.61;82.23
68248;SHT30;55064;49.636;12.164;2023-05-10T12:33:17;15.40;82.79
68248;SHT30;55064;49.636;12.164;2023-05-10T12:35:53;15.30;82.80
68248;SHT30;55064;49.636;12.164;2023-05-10T12:38:31;15.16;82.64
68248;SHT30;55064;49.636;12.164;2023-05-10T12:48:37;15.29;82.73
68248;SHT30;55064;49.636;12.164;2023-05-10T12:51:03;15.24;82.21
68248;SHT30;55064;49.636;12.164;2023-05-10T12:53:29;15.26;82.85
68248;SHT30;55064;49.636;12.164;2023-05-10T12:55:56;15.37;82.16
68248;SHT30;55064;49.636;12.164;2023-05-10T12:58:24;15.36;82.47
68248;SHT30;55064;49.636;12.164;2023-05-10T13:00:56;15.40;80.78
68248;SHT30;55064;49.636;12.164;2023-05-10T13:03:26;15.41;82.36
68248;SHT30;55064;49.636;12.164;2023-05-10T13:05:51;15.55;80.75
68248;SHT30;55064;49.636;12.164;2023-05-10T13:08:17;15.62;80.02
68248;SHT30;55064;49.636;12.164;2023-05-10T13:10:44;15.68;79.15
68248;SHT30;55064;49.636;12.164;2023-05-10T13:13:12;15.67;79.67
68248;SHT30;55064;49.636;12.164;2023-05-10T13:15:38;15.82;78.35
68248;SHT30;55064;49.636;12.164;2023-05-10T13:18:08;15.85;78.83
68248;SHT30;55064;49.636;12.164;2023-05-10T13:20:33;15.94;77.08
68248;SHT30;55064;49.636;12.164;2023-05-10T13:23:03;15.84;78.09
68248;SHT30;55064;49.636;12.164;2023-05-10T13:25:30;15.82;77.70
68248;SHT30;55064;49.636;12.164;2023-05-10T13:27:56;15.65;77.45
68248;SHT30;55064;49.636;12.164;2023-05-10T13:30:22;15.65;77.70
68248;SHT30;55064;49.636;12.164;2023-05-10T13:32:49;15.74;78.17
68248;SHT30;55064;49.636;12.164;2023-05-10T13:35:17;15.64;77.49
68248;SHT30;55064;49.636;12.164;2023-05-10T13:37:42;15.82;78.48
68248;SHT30;55064;49.636;12.164;2023-05-10T13:40:10;16.10;79.11
68248;SHT30;55064;49.636;12.164;2023-05-10T13:42:36;16.26;78.66
68248;SHT30;55064;49.636;12.164;2023-05-10T13:45:01;16.44;77.83
68248;SHT30;55064;49.636;12.164;2023-05-10T13:47:27;16.50;75.17
68248;SHT30;55064;49.636;12.164;2023-05-10T13:49:53;16.49;75.34
68248;SHT30;55064;49.636;12.164;2023-05-10T13:52:18;16.56;77.42
68248;SHT30;55064;49.636;12.164;2023-05-10T13:54:44;16.49;76.35
68248;SHT30;55064;49.636;12.164;2023-05-10T13:57:09;16.33;76.18
68248;SHT30;55064;49.636;12.164;2023-05-10T13:59:36;16.37;75.53
68248;SHT30;55064;49.636;12.164;2023-05-10T14:02:06;16.41;76.03
68248;SHT30;55064;49.636;12.164;2023-05-10T14:04:33;16.49;76.79
68248;SHT30;55064;49.636;12.164;2023-05-10T14:07:00;16.67;76.67
68248;SHT30;55064;49.636;12.164;2023-05-10T14:09:30;16.74;74.80
68248;SHT30;55064;49.636;12.164;2023-05-10T14:11:56;16.85;74.92
68248;SHT30;55064;49.636;12.164;2023-05-10T14:14:21;16.75;76.13
68248;SHT30;55064;49.636;12.164;2023-05-10T14:16:46;16.77;76.17
68248;SHT30;55064;49.636;12.164;2023-05-10T14:19:14;16.94;75.89
68248;SHT30;55064;49.636;12.164;2023-05-10T14:21:42;16.88;76.07
68248;SHT30;55064;49.636;12.164;2023-05-10T14:24:08;16.91;75.79
68248;SHT30;55064;49.636;12.164;2023-05-10T14:26:34;16.96;74.40
68248;SHT30;55064;49.636;12.164;2023-05-10T14:29:00;16.71;74.62
68248;SHT30;55064;49.636;12.164;2023-05-10T14:31:25;16.79;74.82
68248;SHT30;55064;49.636;12.164;2023-05-10T14:33:51;16.64;77.35
68248;SHT30;55064;49.636;12.164;2023-05-10T14:36:17;16.43;76.75
68248;SHT30;55064;49.636;12.164;2023-05-10T14:38:43;16.53;76.36
68248;SHT30;55064;49.636;12.164;2023-05-10T14:41:08;16.58;77.34
68248;SHT30;55064;49.636;12.164;2023-05-10T14:43:36;16.65;77.54
68248;SHT30;55064;49.636;12.164;2023-05-10T14:46:03;16.67;78.44
68248;SHT30;55064;49.636;12.164;2023-05-10T14:48:29;16.65;79.54
68248;SHT30;55064;49.636;12.164;2023-05-10T14:50:55;16.74;78.53
68248;SHT30;55064;49.636;12.164;2023-05-10T14:53:23;16.60;76.52
68248;SHT30;55064;49.636;12.164;2023-05-10T14:55:50;16.23;77.74
68248;SHT30;55064;49.636;12.164;2023-05-10T14:58:18;16.27;78.35
68248;SHT30;55064;49.636;12.164;2023-05-10T15:00:45;16.36;79.29
68248;SHT30;55064;49.636;12.164;2023-05-10T15:03:13;16.39;79.34
68248;SHT30;55064;49.636;12.164;2023-05-10T15:05:39;16.32;78.21
68248;SHT30;55064;49.636;12.164;2023-05-10T15:08:09;16.36;79.56
68248;SHT30;55064;49.636;12.164;2023-05-10T15:10:35;16.13;80.45
68248;SHT30;55064;49.636;12.164;2023-05-10T15:15:35;16.16;81.71
68248;SHT30;55064;49.636;12.164;2023-05-10T15:23:27;16.08;82.73
68248;SHT30;55064;49.636;12.164;2023-05-10T16:02:23;15.37;87.19
68248;SHT30;55064;49.636;12.164;2023-05-10T16:04:48;15.37;86.88
68248;SHT30;55064;49.636;12.164;2023-05-10T16:09:49;15.29;86.37
68248;SHT30;55064;49.636;12.164;2023-05-10T16:12:14;15.23;86.76
68248;SHT30;55064;49.636;12.164;2023-05-10T16:14:40;15.27;86.60
68248;SHT30;55064;49.636;12.164;2023-05-10T16:17:05;15.18;86.76
68248;SHT30;55064;49.636;12.164;2023-05-10T16:21:59;15.02;87.65
68248;SHT30;55064;49.636;12.164;2023-05-10T16:24:26;15.03;88.11
68248;SHT30;55064;49.636;12.164;2023-05-10T18:03:03;14.02;97.97
68248;SHT30;55064;49.636;12.164;2023-05-10T18:08:49;13.85;95.03
68248;SHT30;55064;49.636;12.164;2023-05-10T19:44:01;13.11;95.86
68248;SHT30;55064;49.636;12.164;2023-05-10T19:46:31;13.10;95.88
68248;SHT30;55064;49.636;12.164;2023-05-10T19:48:57;13.13;95.73
68248;SHT30;55064;49.636;12.164;2023-05-10T19:51:24;13.19;96.02
68248;SHT30;55064;49.636;12.164;2023-05-10T19:53:49;13.16;96.31
68248;SHT30;55064;49.636;12.164;2023-05-10T19:56:21;13.10;95.95
68248;SHT30;55064;49.636;12.164;2023-05-10T19:58:46;13.10;95.99
68248;SHT30;55064;49.636;12.164;2023-05-10T20:01:12;13.04;96.55
68248;SHT30;55064;49.636;12.164;2023-05-10T20:03:37;13.04;96.30
68248;SHT30;55064;49.636;12.164;2023-05-10T20:06:02;13.00;95.96
68248;SHT30;55064;49.636;12.164;2023-05-10T20:08:28;12.90;96.39
68248;SHT30;55064;49.636;12.164;2023-05-10T20:10:54;12.90;96.82
68248;SHT30;55064;49.636;12.164;2023-05-10T20:13:23;12.96;97.17
68248;SHT30;55064;49.636;12.164;2023-05-10T20:15:48;12.85;96.73
68248;SHT30;55064;49.636;12.164;2023-05-10T20:18:14;12.81;96.55
68248;SHT30;55064;49.636;12.164;2023-05-10T20:20:39;12.83;97.27
68248;SHT30;55064;49.636;12.164;2023-05-10T20:23:04;12.81;97.47
68248;SHT30;55064;49.636;12.164;2023-05-10T20:25:30;12.82;97.51
68248;SHT30;55064;49.636;12.164;2023-05-10T20:27:56;12.78;96.82
68248;SHT30;55064;49.636;12.164;2023-05-10T20:30:23;12.76;96.89
68248;SHT30;55064;49.636;12.164;2023-05-10T20:32:48;12.81;97.43
68248;SHT30;55064;49.636;12.164;2023-05-10T20:35:13;12.79;97.06
68248;SHT30;55064;49.636;12.164;2023-05-10T20:37:41;12.75;96.34
68248;SHT30;55064;49.636;12.164;2023-05-10T20:40:07;12.68;96.47
68248;SHT30;55064;49.636;12.164;2023-05-10T20:42:32;12.72;96.51
68248;SHT30;55064;49.636;12.164;2023-05-10T20:44:58;12.72;96.57
68248;SHT30;55064;49.636;12.164;2023-05-10T20:47:26;12.65;96.91
68248;SHT30;55064;49.636;12.164;2023-05-10T20:49:52;12.59;96.99
68248;SHT30;55064;49.636;12.164;2023-05-10T20:52:17;12.58;97.20
68248;SHT30;55064;49.636;12.164;2023-05-10T20:54:45;12.59;97.52
68248;SHT30;55064;49.636;12.164;2023-05-10T20:57:12;12.49;98.00
68248;SHT30;55064;49.636;12.164;2023-05-10T20:59:38;12.40;98.30
68248;SHT30;55064;49.636;12.164;2023-05-10T21:02:04;12.41;98.03
68248;SHT30;55064;49.636;12.164;2023-05-10T21:04:33;12.34;98.50
68248;SHT30;55064;49.636;12.164;2023-05-10T21:06:59;12.33;98.65
68248;SHT30;55064;49.636;12.164;2023-05-10T21:09:24;12.30;98.49
68248;SHT30;55064;49.636;12.164;2023-05-10T21:11:50;12.30;98.66
68248;SHT30;55064;49.636;12.164;2023-05-10T21:14:19;12.31;98.62
68248;SHT30;55064;49.636;12.164;2023-05-10T21:16:47;12.28;98.42
68248;SHT30;55064;49.636;12.164;2023-05-10T21:19:12;12.27;98.24
68248;SHT30;55064;49.636;12.164;2023-05-10T21:21:37;12.38;98.39
68248;SHT30;55064;49.636;12.164;2023-05-10T21:24:03;12.40;97.95
68248;SHT30;55064;49.636;12.164;2023-05-10T21:26:28;12.38;98.03
68248;SHT30;55064;49.636;12.164;2023-05-10T21:28:54;12.40;98.16
68248;SHT30;55064;49.636;12.164;2023-05-10T21:31:19;12.40;98.05
68248;SHT30;55064;49.636;12.164;2023-05-10T21:33:45;12.33;98.13
68248;SHT30;55064;49.636;12.164;2023-05-10T21:36:10;12.28;98.16
68248;SHT30;55064;49.636;12.164;2023-05-10T21:38:36;12.21;98.07
68248;SHT30;55064;49.636;12.164;2023-05-10T21:41:05;12.17;98.25
68248;SHT30;55064;49.636;12.164;2023-05-10T21:43:48;12.20;98.20
68248;SHT30;55064;49.636;12.164;2023-05-10T21:46:13;12.20;98.17
68248;SHT30;55064;49.636;12.164;2023-05-10T21:48:40;12.23;98.07
68248;SHT30;55064;49.636;12.164;2023-05-10T21:51:06;12.23;98.10
68248;SHT30;55064;49.636;12.164;2023-05-10T21:53:32;12.30;98.26
68248;SHT30;55064;49.636;12.164;2023-05-10T21:56:17;12.28;97.92
68248;SHT30;55064;49.636;12.164;2023-05-10T21:58:42;12.34;97.76
68248;SHT30;55064;49.636;12.164;2023-05-10T22:01:18;12.34;97.66
68248;SHT30;55064;49.636;12.164;2023-05-10T22:04:14;12.38;97.48
68248;SHT30;55064;49.636;12.164;2023-05-10T22:07:08;12.35;97.47
68248;SHT30;55064;49.636;12.164;2023-05-10T22:09:38;12.40;97.08
68248;SHT30;55064;49.636;12.164;2023-05-10T22:12:26;12.34;97.99
68248;SHT30;55064;49.636;12.164;2023-05-10T22:14:51;12.33;98.09
68248;SHT30;55064;49.636;12.164;2023-05-10T22:17:17;12.26;97.99
68248;SHT30;55064;49.636;12.164;2023-05-10T22:23:22;12.34;97.38
68248;SHT30;55064;49.636;12.164;2023-05-10T22:25:47;12.31;97.06
68248;SHT30;55064;49.636;12.164;2023-05-10T22:28:15;12.31;96.92
68248;SHT30;55064;49.636;12.164;2023-05-10T22:30:43;12.34;96.87
68248;SHT30;55064;49.636;12.164;2023-05-10T22:33:11;12.28;97.27
68248;SHT30;55064;49.636;12.164;2023-05-10T22:35:36;12.33;97.42
68248;SHT30;55064;49.636;12.164;2023-05-10T22:38:02;12.28;97.75
68248;SHT30;55064;49.636;12.164;2023-05-10T22:40:27;12.33;97.26
68248;SHT30;55064;49.636;12.164;2023-05-10T22:42:52;12.28;97.68
68248;SHT30;55064;49.636;12.164;2023-05-10T22:45:20;12.26;97.46
68248;SHT30;55064;49.636;12.164;2023-05-10T22:47:45;12.28;97.25
68248;SHT30;55064;49.636;12.164;2023-05-10T22:50:11;12.24;97.79
68248;SHT30;55064;49.636;12.164;2023-05-10T22:52:39;12.26;97.14
68248;SHT30;55064;49.636;12.164;2023-05-10T22:55:05;12.28;96.94
68248;SHT30;55064;49.636;12.164;2023-05-10T22:57:33;12.28;96.89
68248;SHT30;55064;49.636;12.164;2023-05-10T22:59:58;12.31;97.28
68248;SHT30;55064;49.636;12.164;2023-05-10T23:02:24;12.31;97.57
68248;SHT30;55064;49.636;12.164;2023-05-10T23:04:49;12.28;96.89
68248;SHT30;55064;49.636;12.164;2023-05-10T23:07:14;12.26;97.10